WetterOnline ( https://www.wetteronline.de )

Wetter aktuell Bornheim

Aktuelles Wetter: Rheinstetten (116m)

6-stündlich | Neueste Meldungen
Ortszeit Temperatur Wetter
Do, 02.02. 7:00 5.9° C wolkig
Do, 02.02. 1:00 6.1° C leichter Regen
Mi, 01.02. 19:00 6.9° C bedeckt
Mi, 01.02. 13:00 6.1° C bewölkt
Mi, 01.02. 7:00 4.9° C wolkenlos
Mi, 01.02. 1:00 4.8° C fast wolkenlos
Di, 31.01. 19:00 5.5° C bedeckt
Di, 31.01. 13:00 3.8° C bewölkt
Ortszeit Temperatur Wetter
Do, 02.02. 11:30 7.5° C bewölkt
Do, 02.02. 11:20 7.5° C bewölkt
Do, 02.02. 11:10 7.4° C wolkig
Do, 02.02. 11:00 7.1° C wolkig
Do, 02.02. 10:50 7.1° C wolkig
Do, 02.02. 10:40 7.0° C bewölkt
Do, 02.02. 10:30 7.0° C wolkig
Do, 02.02. 10:00 6.7° C leicht bewölkt
Do, 02.02. 9:30 6.4° C leicht bewölkt
Do, 02.02. 9:00 6.0° C wolkig
Do, 02.02. 8:30 5.5° C bewölkt
Ortszeit Relative Feuchte Sichtweite
Do, 02.02. 7:00 84% 35 km
Do, 02.02. 1:00 78% 21 km
Mi, 01.02. 19:00 69% 35 km
Mi, 01.02. 13:00 79% 45 km
Mi, 01.02. 7:00 84% 45 km
Mi, 01.02. 1:00 83% 40 km
Di, 31.01. 19:00 71% 45 km
Di, 31.01. 13:00 79% 30 km
Ortszeit Relative Feuchte Sichtweite
Do, 02.02. 11:30 77% 28 km
Do, 02.02. 11:20 77% -
Do, 02.02. 11:10 78% -
Do, 02.02. 11:00 79% 29 km
Do, 02.02. 10:50 79% -
Do, 02.02. 10:40 79% -
Do, 02.02. 10:30 79% 24 km
Do, 02.02. 10:00 81% 28 km
Do, 02.02. 9:30 82% 30 km
Do, 02.02. 9:00 84% 30 km
Do, 02.02. 8:30 86% 35 km
Ortszeit Niederschlagsmenge Niederschlagsart
Do, 02.02. 7:00 0.1 l/m2 in 12 Std. Regen
Do, 02.02. 1:00 0.1 l/m2 in 6 Std. Regen
Mi, 01.02. 19:00 0.5 l/m2 in 12 Std. Regen
Mi, 01.02. 13:00 0.5 l/m2 in 6 Std. Regen
Mi, 01.02. 7:00 0.4 l/m2 in 12 Std. Regen
Mi, 01.02. 1:00 0.1 l/m2 in 6 Std. Regen
Di, 31.01. 19:00 0.1 l/m2 in 12 Std. -
Di, 31.01. 13:00 0.1 l/m2 in 6 Std. Regen
Ortszeit Niederschlagsmenge Niederschlagsart
Do, 02.02. 11:30 0.0 l/m2 in 30 Min -
Do, 02.02. 11:20 keine Meldung -
Do, 02.02. 11:10 keine Meldung -
Do, 02.02. 11:00 <0.05 l/m2 in 1 Std. Niederschlag
Do, 02.02. 10:50 keine Meldung -
Do, 02.02. 10:40 keine Meldung -
Do, 02.02. 10:30 <0.05 l/m2 in 30 Min Regen
Do, 02.02. 10:00 0.0 l/m2 in 1 Std. Regen
Do, 02.02. 9:30 0.0 l/m2 in 30 Min -
Do, 02.02. 9:00 0.0 l/m2 in 1 Std. -
Do, 02.02. 8:30 0.0 l/m2 in 30 Min -
Ortszeit Stärke Spitze Richtung
km/h Bft. km/h Grad Sektor
Do, 02.02. 7:00 26 4 44 220° SW
Do, 02.02. 1:00 29 5 50 230° SW
Mi, 01.02. 19:00 31 5 52 230° SW
Mi, 01.02. 13:00 25 4 43 220° SW
Mi, 01.02. 7:00 28 4 43 220° SW
Mi, 01.02. 1:00 22 4 44 230° SW
Di, 31.01. 19:00 30 5 52 230° SW
Di, 31.01. 13:00 22 4 43 240° SW
Ortszeit Stärke Spitze Richtung
km/h Bft. km/h Grad Sektor
Do, 02.02. 11:30 32 5 50 240° SW
Do, 02.02. 11:20 32 5 - 240° SW
Do, 02.02. 11:10 31 5 - 240° SW
Do, 02.02. 11:00 28 4 43 240° SW
Do, 02.02. 10:50 28 4 - 240° SW
Do, 02.02. 10:40 29 5 - 230° SW
Do, 02.02. 10:30 28 4 43 240° SW
Do, 02.02. 10:00 22 4 37 240° SW
Do, 02.02. 9:30 26 4 37 240° SW
Do, 02.02. 9:00 25 4 36 230° SW
Do, 02.02. 8:30 25 4 36 230° SW
Ortszeit Untergrenze Bedeckung Gattung
total tief tief mittel hoch
Do, 02.02. 7:00 660 m 6/8 6/8 - - -
Do, 02.02. 1:00 750 m 8/8 8/8 - - -
Mi, 01.02. 19:00 1170 m 8/8 8/8 - - -
Mi, 01.02. 13:00 780 m 7/8 7/8 - - -
Mi, 01.02. 7:00 - 0/8 0/8 - - -
Mi, 01.02. 1:00 540 m 1/8 1/8 - - -
Di, 31.01. 19:00 720 m 8/8 8/8 - - -
Di, 31.01. 13:00 900 m 7/8 7/8 - - -
Ortszeit Bedeckungsgrad in Achtel und Wolkenuntergrenze
Do, 02.02. 11:30 5(720m) 7(870m) 7(3000m)
Do, 02.02. 11:20 5(720m) 7(870m) 7(3000m)
Do, 02.02. 11:10 6
Do, 02.02. 11:00 5(630m)
Do, 02.02. 10:50 5(630m)
Do, 02.02. 10:40 7
Do, 02.02. 10:30 6(660m)
Do, 02.02. 10:00 3(540m)
Do, 02.02. 9:30 2(540m)
Do, 02.02. 9:00 3(570m) 5(1500m) 5(3300m)
Do, 02.02. 8:30 1(570m) 6(1500m) 7(3300m)
Ortszeit Luftdruck NN (hPa) Tendenz (hPa in 3 Std.)
Do, 02.02. 7:00 1026 + 0,7
Do, 02.02. 1:00 1025 0,0
Mi, 01.02. 19:00 1025 + 0,6
Mi, 01.02. 13:00 1025 - 0,2
Mi, 01.02. 7:00 1025 0,0
Mi, 01.02. 1:00 1026 - 1,0
Di, 31.01. 19:00 1027 + 0,3
Di, 31.01. 13:00 1028 - 1,1
Ortszeit Luftdruck NN (hPa) Tendenz (hPa in 3 Std.)
Do, 02.02. 11:30 1028 + 0,9
Do, 02.02. 11:20 1028 keine Meldung
Do, 02.02. 11:10 1027 keine Meldung
Do, 02.02. 11:00 1028 + 0,7
Do, 02.02. 10:50 1028 keine Meldung
Do, 02.02. 10:40 1028 keine Meldung
Do, 02.02. 10:30 1028 + 0,7
Do, 02.02. 10:00 1027 + 1,0
Do, 02.02. 9:30 1027 + 0,8
Do, 02.02. 9:00 1027 + 0,6
Do, 02.02. 8:30 1027 + 0,8
Ortszeit Schneehöhe (cm)
Do, 02.02. 7:00 0
Do, 02.02. 1:00 0
Mi, 01.02. 19:00 0
Mi, 01.02. 13:00 0
Mi, 01.02. 7:00 0
Mi, 01.02. 1:00 0
Di, 31.01. 19:00 0
Di, 31.01. 13:00 0
Ortszeit Schneehöhe (cm)
Do, 02.02. 11:30 0
Do, 02.02. 11:20 0
Do, 02.02. 11:10 0
Do, 02.02. 11:00 0
Do, 02.02. 10:50 0
Do, 02.02. 10:40 0
Do, 02.02. 10:30 0
Do, 02.02. 10:00 0
Do, 02.02. 9:30 0
Do, 02.02. 9:00 0
Do, 02.02. 8:30 0
Link zu dieser Seite / Seite empfehlen

Das Wetter in ...